createdAt,value
2019-03-08T00:01:11.554Z,3.52
2019-03-08T00:06:19.966Z,3.64
2019-03-08T00:11:28.812Z,4.43
2019-03-08T00:16:37.267Z,3.99
2019-03-08T00:21:47.533Z,4.61
2019-03-08T00:26:46.249Z,5.65
2019-03-08T00:31:53.384Z,3.87
2019-03-08T00:37:02.290Z,2.76
2019-03-08T00:42:10.718Z,2.51
2019-03-08T00:47:19.546Z,4.17
2019-03-08T00:52:27.992Z,4.90
2019-03-08T00:57:36.951Z,5.09
2019-03-08T01:02:45.676Z,3.97
2019-03-08T01:07:54.164Z,4.44
2019-03-08T01:13:04.220Z,3.77
2019-03-08T01:18:02.640Z,4.21
2019-03-08T01:23:11.161Z,4.21
2019-03-08T01:28:20.984Z,5.38
2019-03-08T01:33:29.424Z,4.37
2019-03-08T01:38:38.224Z,4.16
2019-03-08T01:43:47.801Z,4.87
2019-03-08T01:48:56.560Z,4.42
2019-03-08T01:54:05.008Z,3.47
2019-03-08T01:59:13.427Z,5.31
2019-03-08T02:04:22.438Z,6.20
2019-03-08T02:09:31.128Z,2.93
2019-03-08T02:14:40.113Z,3.11
2019-03-08T02:19:50.956Z,3.82
2019-03-08T02:24:49.470Z,3.45
2019-03-08T02:29:58.103Z,3.65
2019-03-08T02:35:07.022Z,4.12
2019-03-08T02:40:15.526Z,4.70
2019-03-08T02:45:24.548Z,3.56
2019-03-08T02:50:33.537Z,4.72
2019-03-08T02:55:42.461Z,3.47
2019-03-08T03:00:51.642Z,4.05
2019-03-08T03:06:00.548Z,4.84
2019-03-08T03:11:08.893Z,4.16
2019-03-08T03:16:17.952Z,3.64
2019-03-08T03:21:26.361Z,4.27
2019-03-08T03:26:35.196Z,4.15
2019-03-08T03:31:43.635Z,3.12
2019-03-08T03:36:52.441Z,3.37
2019-03-08T03:42:01.031Z,3.83
2019-03-08T03:47:09.970Z,3.69
2019-03-08T03:52:18.386Z,3.82
2019-03-08T03:57:27.279Z,2.68
2019-03-08T04:02:35.872Z,3.40
2019-03-08T04:07:44.715Z,4.32
2019-03-08T04:12:53.362Z,5.01
2019-03-08T04:18:02.307Z,5.41
2019-03-08T04:23:10.794Z,5.34
2019-03-08T04:28:19.654Z,5.27
2019-03-08T04:33:28.049Z,3.70
2019-03-08T04:38:36.985Z,4.63
2019-03-08T04:43:45.392Z,3.91
2019-03-08T04:48:54.197Z,2.93
2019-03-08T04:54:02.672Z,3.93
2019-03-08T04:59:11.697Z,3.85
2019-03-08T05:04:20.130Z,6.11
2019-03-08T05:09:29.415Z,6.55
2019-03-08T05:14:37.960Z,5.80
2019-03-08T05:19:47.044Z,5.35
2019-03-08T05:24:55.605Z,4.49
2019-03-08T05:30:02.627Z,4.59
2019-03-08T05:35:12.467Z,7.04
2019-03-08T05:40:20.913Z,3.80
2019-03-08T05:45:29.763Z,4.17
2019-03-08T05:50:38.237Z,4.17
2019-03-08T05:55:48.212Z,5.87
2019-03-08T06:00:56.774Z,5.23
2019-03-08T06:06:08.037Z,7.75
2019-03-08T06:11:06.511Z,5.74
2019-03-08T06:16:14.928Z,4.94
2019-03-08T06:21:23.849Z,5.03
2019-03-08T06:26:32.481Z,5.26
2019-03-08T06:31:56.182Z,6.71
2019-03-08T06:36:43.722Z,4.55
2019-03-08T06:41:52.937Z,7.01
2019-03-08T06:47:02.343Z,4.64
2019-03-08T06:52:10.898Z,7.21
2019-03-08T06:57:20.559Z,6.51
2019-03-08T07:02:30.128Z,5.95
2019-03-08T07:07:36.566Z,6.59
2019-03-08T07:12:45.104Z,6.36
2019-03-08T07:17:54.150Z,4.70
2019-03-08T07:23:02.085Z,5.88
2019-03-08T07:28:11.125Z,6.65
2019-03-08T07:33:19.664Z,6.15
2019-03-08T07:38:28.604Z,5.87
2019-03-08T07:43:37.056Z,6.86
2019-03-08T07:48:49.712Z,5.70
2019-03-08T07:53:48.049Z,5.10
2019-03-08T07:58:58.221Z,6.52
2019-03-08T08:03:57.086Z,8.20
2019-03-08T08:09:07.122Z,7.53
2019-03-08T08:14:06.492Z,5.75
2019-03-08T08:19:15.570Z,6.82
2019-03-08T08:24:26.018Z,6.88
2019-03-08T08:29:23.654Z,6.38
2019-03-08T08:34:32.139Z,6.85
2019-03-08T08:39:41.129Z,7.65
2019-03-08T08:45:03.416Z,8.37
2019-03-08T08:49:55.970Z,7.47
2019-03-08T08:54:52.679Z,5.62
2019-03-08T09:00:01.758Z,5.44
2019-03-08T09:05:11.033Z,7.55
2019-03-08T09:10:19.413Z,9.16
2019-03-08T09:15:28.064Z,5.64
2019-03-08T09:20:38.381Z,6.27
2019-03-08T09:25:37.281Z,5.12
2019-03-08T09:30:46.613Z,5.62
2019-03-08T09:35:55.853Z,4.97
2019-03-08T09:41:04.752Z,5.69
2019-03-08T09:46:14.094Z,6.37
2019-03-08T09:51:23.057Z,3.91
2019-03-08T09:56:32.431Z,7.02
2019-03-08T10:01:41.404Z,4.62
2019-03-08T10:06:50.200Z,4.45
2019-03-08T10:12:01.389Z,6.70
2019-03-08T10:17:00.500Z,6.49
2019-03-08T10:22:08.944Z,5.18
2019-03-08T10:27:17.808Z,4.49
2019-03-08T10:32:26.836Z,1.19
2019-03-08T10:37:37.435Z,2.26
2019-03-08T10:42:35.193Z,1.58
2019-03-08T10:47:44.109Z,1.66
2019-03-08T10:52:52.924Z,1.52
2019-03-08T10:58:01.888Z,1.75
2019-03-08T11:03:11.263Z,1.33
2019-03-08T11:08:29.368Z,1.05
2019-03-08T11:13:29.032Z,1.18
2019-03-08T11:18:41.485Z,2.51
2019-03-08T11:23:43.420Z,1.71
2019-03-08T11:28:42.466Z,2.61
2019-03-08T11:33:51.677Z,1.78
2019-03-08T11:39:00.561Z,2.37
2019-03-08T11:44:10.084Z,1.93
2019-03-08T11:49:19.124Z,2.38
2019-03-08T11:54:29.640Z,3.45
2019-03-08T11:59:36.496Z,2.68
2019-03-08T12:04:46.269Z,2.25
2019-03-08T12:09:55.191Z,2.03
2019-03-08T12:15:03.909Z,3.18
2019-03-08T12:20:12.835Z,2.32
2019-03-08T12:25:22.841Z,2.81
2019-03-08T12:30:22.719Z,2.26
2019-03-08T12:35:31.420Z,2.92
2019-03-08T12:40:42.116Z,2.70
2019-03-08T12:45:41.137Z,3.38
2019-03-08T12:50:49.992Z,2.11
2019-03-08T12:56:00.050Z,2.65
2019-03-08T13:00:59.728Z,2.09
2019-03-08T13:06:08.599Z,2.46
2019-03-08T13:11:17.997Z,1.88
2019-03-08T13:16:26.994Z,1.04
2019-03-08T13:21:36.561Z,1.50
2019-03-08T13:26:45.512Z,1.56
2019-03-08T13:31:54.783Z,2.31
2019-03-08T13:37:03.750Z,2.63
2019-03-08T13:42:14.252Z,1.99
2019-03-08T13:47:13.974Z,1.44
2019-03-08T13:52:22.350Z,1.44
2019-03-08T13:57:31.722Z,1.57
2019-03-08T14:02:40.633Z,2.21
2019-03-08T14:07:49.623Z,3.46
2019-03-08T14:13:06.166Z,1.59
2019-03-08T14:18:04.747Z,1.49
2019-03-08T14:23:14.269Z,1.67
2019-03-08T14:28:23.209Z,1.85
2019-03-08T14:33:34.285Z,2.72
2019-03-08T14:38:40.508Z,2.35
2019-03-08T14:43:52.494Z,2.51
2019-03-08T14:48:58.758Z,3.05
2019-03-08T14:54:09.862Z,3.04
2019-03-08T14:59:16.859Z,1.83
2019-03-08T15:04:25.056Z,1.71
2019-03-08T15:09:35.626Z,3.03
2019-03-08T15:14:42.375Z,2.66
2019-03-08T15:19:51.925Z,2.27
2019-03-08T15:25:02.210Z,1.84
2019-03-08T15:30:01.145Z,2.58
2019-03-08T15:35:10.079Z,2.40
2019-03-08T15:40:19.447Z,2.08
2019-03-08T15:45:58.110Z,2.49
2019-03-08T15:51:06.570Z,2.61
2019-03-08T15:56:14.979Z,2.59
2019-03-08T16:01:24.026Z,3.39
2019-03-08T16:06:32.948Z,2.51
2019-03-08T16:11:41.997Z,1.56
2019-03-08T16:16:51.600Z,1.96
2019-03-08T16:22:00.615Z,1.40
2019-03-08T16:27:11.052Z,3.95
2019-03-08T16:32:10.013Z,2.71
2019-03-08T16:37:18.472Z,2.53
2019-03-08T16:42:44.847Z,3.17
2019-03-08T16:47:32.781Z,2.78
2019-03-08T16:52:42.847Z,3.64
2019-03-08T16:57:41.985Z,4.09
2019-03-08T17:02:57.974Z,3.57
2019-03-08T17:08:07.406Z,3.55
2019-03-08T17:13:16.398Z,4.63
2019-03-08T17:18:25.608Z,3.87
2019-03-08T17:23:34.734Z,4.05
2019-03-08T17:28:44.244Z,2.94
2019-03-08T17:33:53.323Z,4.58
2019-03-08T17:39:02.467Z,5.11
2019-03-08T17:44:12.337Z,5.61
2019-03-08T17:49:20.725Z,5.43
2019-03-08T17:54:29.507Z,4.36
2019-03-08T17:59:38.545Z,4.20
2019-03-08T18:04:47.563Z,4.17
2019-03-08T18:09:56.085Z,4.55
2019-03-08T18:15:04.967Z,6.81
2019-03-08T18:20:13.369Z,3.68
2019-03-08T18:25:22.203Z,3.41
2019-03-08T18:30:31.263Z,4.50
2019-03-08T18:35:40.033Z,5.06
2019-03-08T18:40:49.257Z,3.07
2019-03-08T18:45:56.853Z,3.76
2019-03-08T18:51:07.160Z,5.68
2019-03-08T18:56:15.929Z,3.89
2019-03-08T19:01:14.828Z,4.55
2019-03-08T19:07:14.105Z,4.07
2019-03-08T19:12:12.622Z,3.86
2019-03-08T19:17:21.916Z,3.93
2019-03-08T19:22:30.442Z,3.53
2019-03-08T19:27:39.272Z,4.29
2019-03-08T19:32:49.232Z,6.41
2019-03-08T19:38:00.075Z,4.78
2019-03-08T19:43:00.334Z,4.68
2019-03-08T19:48:23.349Z,5.96
2019-03-08T19:53:10.492Z,5.07
2019-03-08T19:58:27.042Z,4.60
2019-03-08T20:03:40.579Z,4.28
2019-03-08T20:08:55.102Z,5.83
2019-03-08T20:13:38.889Z,5.64
2019-03-08T20:18:38.509Z,3.19
2019-03-08T20:23:45.852Z,4.65
2019-03-08T20:28:54.407Z,5.51
2019-03-08T20:34:18.723Z,4.80
2019-03-08T20:39:07.263Z,4.65
2019-03-08T20:44:15.943Z,4.26
2019-03-08T20:49:25.851Z,5.10
2019-03-08T20:54:34.350Z,3.74
2019-03-08T20:59:43.538Z,3.14
2019-03-08T21:04:52.154Z,5.14
2019-03-08T21:10:01.765Z,3.82
2019-03-08T21:15:10.334Z,4.74
2019-03-08T21:20:20.702Z,6.05
2019-03-08T21:25:28.346Z,5.60
2019-03-08T21:30:38.239Z,4.86
2019-03-08T21:35:46.716Z,5.76
2019-03-08T21:40:58.192Z,6.28
2019-03-08T21:45:56.676Z,4.90
2019-03-08T21:51:05.124Z,4.91
2019-03-08T21:56:17.300Z,4.11
2019-03-08T22:01:15.776Z,5.59
2019-03-08T22:06:27.750Z,7.23
2019-03-08T22:11:25.794Z,6.92
2019-03-08T22:16:34.303Z,6.32
2019-03-08T22:21:44.371Z,5.93
2019-03-08T22:26:53.815Z,5.34
2019-03-08T22:32:16.602Z,4.50
2019-03-08T22:37:05.150Z,5.08
2019-03-08T22:42:13.582Z,6.10
2019-03-08T22:47:22.573Z,5.58
2019-03-08T22:52:31.155Z,6.04
2019-03-08T22:57:40.197Z,6.67
2019-03-08T23:02:48.585Z,6.96
2019-03-08T23:07:57.571Z,5.99
2019-03-08T23:13:06.117Z,5.81
2019-03-08T23:18:14.620Z,5.18
2019-03-08T23:23:24.864Z,8.47
2019-03-08T23:28:23.315Z,6.57
2019-03-08T23:33:31.799Z,4.73
2019-03-08T23:38:40.692Z,7.12
2019-03-08T23:43:49.499Z,4.53
2019-03-08T23:48:58.492Z,9.12
2019-03-08T23:54:07.103Z,6.18
2019-03-08T23:59:15.901Z,6.57
